sensor_id;sensor_type;location;lat;lon;timestamp;P1;durP1;ratioP1;P2;durP2;ratioP2
2041;SDS011;1026;51.460;7.252;2023-06-22T00:02:15;4.37;;;4.07;;
2041;SDS011;1026;51.460;7.252;2023-06-22T00:04:41;3.80;;;3.60;;
2041;SDS011;1026;51.460;7.252;2023-06-22T00:07:07;3.27;;;3.07;;
2041;SDS011;1026;51.460;7.252;2023-06-22T00:09:33;3.73;;;3.53;;
2041;SDS011;1026;51.460;7.252;2023-06-22T00:11:59;4.00;;;3.70;;
2041;SDS011;1026;51.460;7.252;2023-06-22T00:14:25;3.67;;;3.47;;
2041;SDS011;1026;51.460;7.252;2023-06-22T00:16:50;3.63;;;3.37;;
2041;SDS011;1026;51.460;7.252;2023-06-22T00:19:20;3.70;;;3.50;;
2041;SDS011;1026;51.460;7.252;2023-06-22T00:21:47;3.57;;;3.37;;
2041;SDS011;1026;51.460;7.252;2023-06-22T00:24:18;3.43;;;3.23;;
2041;SDS011;1026;51.460;7.252;2023-06-22T00:26:45;4.00;;;3.60;;
2041;SDS011;1026;51.460;7.252;2023-06-22T00:29:12;3.93;;;3.63;;
2041;SDS011;1026;51.460;7.252;2023-06-22T00:31:47;3.23;;;2.93;;
2041;SDS011;1026;51.460;7.252;2023-06-22T00:34:12;3.63;;;3.33;;
2041;SDS011;1026;51.460;7.252;2023-06-22T00:36:38;3.40;;;3.20;;
2041;SDS011;1026;51.460;7.252;2023-06-22T00:39:05;3.87;;;3.47;;
2041;SDS011;1026;51.460;7.252;2023-06-22T00:41:32;7.50;;;6.87;;
2041;SDS011;1026;51.460;7.252;2023-06-22T00:43:58;3.40;;;3.20;;
2041;SDS011;1026;51.460;7.252;2023-06-22T00:46:26;3.10;;;2.90;;
2041;SDS011;1026;51.460;7.252;2023-06-22T00:48:52;4.00;;;3.20;;
2041;SDS011;1026;51.460;7.252;2023-06-22T00:51:22;4.20;;;3.80;;
2041;SDS011;1026;51.460;7.252;2023-06-22T00:53:49;3.40;;;3.20;;
2041;SDS011;1026;51.460;7.252;2023-06-22T00:56:16;3.57;;;3.33;;
2041;SDS011;1026;51.460;7.252;2023-06-22T00:58:49;3.33;;;3.13;;
2041;SDS011;1026;51.460;7.252;2023-06-22T01:01:17;3.90;;;3.60;;
2041;SDS011;1026;51.460;7.252;2023-06-22T01:03:47;3.17;;;2.97;;
2041;SDS011;1026;51.460;7.252;2023-06-22T01:06:15;3.40;;;3.20;;
2041;SDS011;1026;51.460;7.252;2023-06-22T01:08:49;4.13;;;3.83;;
2041;SDS011;1026;51.460;7.252;2023-06-22T01:11:23;3.63;;;3.33;;
2041;SDS011;1026;51.460;7.252;2023-06-22T01:16:34;4.00;;;3.70;;
2041;SDS011;1026;51.460;7.252;2023-06-22T01:19:06;3.30;;;3.10;;
2041;SDS011;1026;51.460;7.252;2023-06-22T01:21:52;3.60;;;3.40;;
2041;SDS011;1026;51.460;7.252;2023-06-22T01:24:22;4.20;;;3.80;;
2041;SDS011;1026;51.460;7.252;2023-06-22T01:27:05;3.33;;;3.13;;
2041;SDS011;1026;51.460;7.252;2023-06-22T01:29:51;3.87;;;3.57;;
2041;SDS011;1026;51.460;7.252;2023-06-22T01:32:25;3.77;;;3.47;;
2041;SDS011;1026;51.460;7.252;2023-06-22T01:35:06;4.23;;;3.93;;
2041;SDS011;1026;51.460;7.252;2023-06-22T01:37:34;4.30;;;4.00;;
2041;SDS011;1026;51.460;7.252;2023-06-22T01:40:01;3.80;;;3.50;;
2041;SDS011;1026;51.460;7.252;2023-06-22T01:42:30;3.70;;;3.50;;
2041;SDS011;1026;51.460;7.252;2023-06-22T01:44:56;4.37;;;3.97;;
2041;SDS011;1026;51.460;7.252;2023-06-22T01:47:23;3.67;;;3.37;;
2041;SDS011;1026;51.460;7.252;2023-06-22T01:49:50;3.67;;;3.37;;
2041;SDS011;1026;51.460;7.252;2023-06-22T01:52:17;3.30;;;3.10;;
2041;SDS011;1026;51.460;7.252;2023-06-22T01:54:43;3.20;;;3.00;;
2041;SDS011;1026;51.460;7.252;2023-06-22T01:57:09;3.57;;;3.27;;
2041;SDS011;1026;51.460;7.252;2023-06-22T01:59:38;3.63;;;3.37;;
2041;SDS011;1026;51.460;7.252;2023-06-22T02:02:20;3.70;;;3.43;;
2041;SDS011;1026;51.460;7.252;2023-06-22T02:04:53;3.87;;;3.57;;
2041;SDS011;1026;51.460;7.252;2023-06-22T02:07:23;4.13;;;3.73;;
2041;SDS011;1026;51.460;7.252;2023-06-22T02:09:52;3.57;;;3.30;;
2041;SDS011;1026;51.460;7.252;2023-06-22T02:12:21;3.80;;;3.50;;
2041;SDS011;1026;51.460;7.252;2023-06-22T02:14:50;3.90;;;3.60;;
2041;SDS011;1026;51.460;7.252;2023-06-22T02:17:17;3.83;;;3.60;;
2041;SDS011;1026;51.460;7.252;2023-06-22T02:19:43;3.80;;;3.50;;
2041;SDS011;1026;51.460;7.252;2023-06-22T02:22:09;3.10;;;2.90;;
2041;SDS011;1026;51.460;7.252;2023-06-22T02:24:34;3.23;;;3.03;;
2041;SDS011;1026;51.460;7.252;2023-06-22T02:27:01;3.30;;;3.03;;
2041;SDS011;1026;51.460;7.252;2023-06-22T02:29:27;3.93;;;3.50;;
2041;SDS011;1026;51.460;7.252;2023-06-22T02:31:54;3.80;;;3.50;;
2041;SDS011;1026;51.460;7.252;2023-06-22T02:34:20;4.03;;;3.73;;
2041;SDS011;1026;51.460;7.252;2023-06-22T02:36:48;3.70;;;3.40;;
2041;SDS011;1026;51.460;7.252;2023-06-22T02:39:18;3.40;;;3.10;;
2041;SDS011;1026;51.460;7.252;2023-06-22T02:41:45;4.17;;;3.87;;
2041;SDS011;1026;51.460;7.252;2023-06-22T02:44:11;3.87;;;3.57;;
2041;SDS011;1026;51.460;7.252;2023-06-22T02:46:36;3.83;;;3.53;;
2041;SDS011;1026;51.460;7.252;2023-06-22T02:49:02;4.00;;;3.70;;
2041;SDS011;1026;51.460;7.252;2023-06-22T02:51:30;3.60;;;3.30;;
2041;SDS011;1026;51.460;7.252;2023-06-22T02:53:59;4.07;;;3.63;;
2041;SDS011;1026;51.460;7.252;2023-06-22T02:56:24;3.40;;;3.20;;
2041;SDS011;1026;51.460;7.252;2023-06-22T02:58:51;3.20;;;3.00;;
2041;SDS011;1026;51.460;7.252;2023-06-22T03:01:17;3.80;;;3.50;;
2041;SDS011;1026;51.460;7.252;2023-06-22T03:03:49;3.93;;;3.63;;
2041;SDS011;1026;51.460;7.252;2023-06-22T03:06:15;4.23;;;3.93;;
2041;SDS011;1026;51.460;7.252;2023-06-22T03:08:41;4.40;;;4.00;;
2041;SDS011;1026;51.460;7.252;2023-06-22T03:11:09;3.63;;;3.33;;
2041;SDS011;1026;51.460;7.252;2023-06-22T03:13:35;3.77;;;3.50;;
2041;SDS011;1026;51.460;7.252;2023-06-22T03:16:00;3.93;;;3.73;;
2041;SDS011;1026;51.460;7.252;2023-06-22T03:18:29;4.03;;;3.70;;
2041;SDS011;1026;51.460;7.252;2023-06-22T03:20:55;3.90;;;3.60;;
2041;SDS011;1026;51.460;7.252;2023-06-22T03:23:20;3.83;;;3.53;;
2041;SDS011;1026;51.460;7.252;2023-06-22T03:25:46;4.50;;;4.10;;
2041;SDS011;1026;51.460;7.252;2023-06-22T03:28:12;3.67;;;3.47;;
2041;SDS011;1026;51.460;7.252;2023-06-22T03:30:38;3.97;;;3.67;;
2041;SDS011;1026;51.460;7.252;2023-06-22T03:33:03;3.90;;;3.60;;
2041;SDS011;1026;51.460;7.252;2023-06-22T03:35:29;5.10;;;4.60;;
2041;SDS011;1026;51.460;7.252;2023-06-22T03:37:55;4.30;;;4.00;;
2041;SDS011;1026;51.460;7.252;2023-06-22T03:40:20;4.93;;;4.57;;
2041;SDS011;1026;51.460;7.252;2023-06-22T03:42:46;3.73;;;3.43;;
2041;SDS011;1026;51.460;7.252;2023-06-22T03:45:11;3.90;;;3.60;;
2041;SDS011;1026;51.460;7.252;2023-06-22T03:47:37;3.40;;;3.10;;
2041;SDS011;1026;51.460;7.252;2023-06-22T03:50:03;3.90;;;3.60;;
2041;SDS011;1026;51.460;7.252;2023-06-22T03:52:29;5.07;;;4.70;;
2041;SDS011;1026;51.460;7.252;2023-06-22T03:54:55;4.10;;;3.80;;
2041;SDS011;1026;51.460;7.252;2023-06-22T03:57:21;4.20;;;3.90;;
2041;SDS011;1026;51.460;7.252;2023-06-22T03:59:46;4.60;;;4.20;;
2041;SDS011;1026;51.460;7.252;2023-06-22T04:02:12;5.00;;;4.60;;
2041;SDS011;1026;51.460;7.252;2023-06-22T04:04:38;3.70;;;3.40;;
2041;SDS011;1026;51.460;7.252;2023-06-22T04:07:04;4.33;;;4.03;;
2041;SDS011;1026;51.460;7.252;2023-06-22T04:09:30;4.50;;;4.10;;
2041;SDS011;1026;51.460;7.252;2023-06-22T04:11:56;4.03;;;3.73;;
2041;SDS011;1026;51.460;7.252;2023-06-22T04:14:21;3.87;;;3.47;;
2041;SDS011;1026;51.460;7.252;2023-06-22T04:16:51;3.77;;;3.47;;
2041;SDS011;1026;51.460;7.252;2023-06-22T04:19:16;4.10;;;3.70;;
2041;SDS011;1026;51.460;7.252;2023-06-22T04:21:43;3.70;;;3.40;;
2041;SDS011;1026;51.460;7.252;2023-06-22T04:24:09;4.13;;;3.83;;
2041;SDS011;1026;51.460;7.252;2023-06-22T04:26:36;4.43;;;4.10;;
2041;SDS011;1026;51.460;7.252;2023-06-22T04:29:03;4.27;;;3.97;;
2041;SDS011;1026;51.460;7.252;2023-06-22T04:31:31;4.70;;;4.30;;
2041;SDS011;1026;51.460;7.252;2023-06-22T04:33:59;4.07;;;3.77;;
2041;SDS011;1026;51.460;7.252;2023-06-22T04:36:32;3.63;;;3.33;;
2041;SDS011;1026;51.460;7.252;2023-06-22T04:39:02;4.43;;;4.03;;
2041;SDS011;1026;51.460;7.252;2023-06-22T04:41:30;3.80;;;3.50;;
2041;SDS011;1026;51.460;7.252;2023-06-22T04:44:08;3.57;;;3.37;;
2041;SDS011;1026;51.460;7.252;2023-06-22T04:46:35;4.37;;;3.87;;
2041;SDS011;1026;51.460;7.252;2023-06-22T04:49:03;6.20;;;5.70;;
2041;SDS011;1026;51.460;7.252;2023-06-22T04:51:34;4.63;;;4.23;;
2041;SDS011;1026;51.460;7.252;2023-06-22T04:54:03;4.20;;;3.80;;
2041;SDS011;1026;51.460;7.252;2023-06-22T04:56:30;4.63;;;4.23;;
2041;SDS011;1026;51.460;7.252;2023-06-22T04:58:56;4.40;;;4.10;;
2041;SDS011;1026;51.460;7.252;2023-06-22T05:01:22;4.40;;;4.07;;
2041;SDS011;1026;51.460;7.252;2023-06-22T05:03:49;4.50;;;4.10;;
2041;SDS011;1026;51.460;7.252;2023-06-22T05:06:15;3.80;;;3.53;;
2041;SDS011;1026;51.460;7.252;2023-06-22T05:08:41;4.43;;;4.13;;
2041;SDS011;1026;51.460;7.252;2023-06-22T05:11:06;4.20;;;3.90;;
2041;SDS011;1026;51.460;7.252;2023-06-22T05:13:32;5.07;;;4.73;;
2041;SDS011;1026;51.460;7.252;2023-06-22T05:15:58;4.60;;;4.20;;
2041;SDS011;1026;51.460;7.252;2023-06-22T05:18:27;4.83;;;4.43;;
2041;SDS011;1026;51.460;7.252;2023-06-22T05:20:54;5.23;;;4.73;;
2041;SDS011;1026;51.460;7.252;2023-06-22T05:23:20;5.40;;;4.57;;
2041;SDS011;1026;51.460;7.252;2023-06-22T05:25:46;4.40;;;4.00;;
2041;SDS011;1026;51.460;7.252;2023-06-22T05:28:11;4.20;;;3.90;;
2041;SDS011;1026;51.460;7.252;2023-06-22T05:30:37;5.83;;;5.23;;
2041;SDS011;1026;51.460;7.252;2023-06-22T05:33:03;3.97;;;3.67;;
2041;SDS011;1026;51.460;7.252;2023-06-22T05:35:29;5.23;;;4.83;;
2041;SDS011;1026;51.460;7.252;2023-06-22T05:37:55;5.47;;;5.07;;
2041;SDS011;1026;51.460;7.252;2023-06-22T05:40:23;4.40;;;4.00;;
2041;SDS011;1026;51.460;7.252;2023-06-22T05:42:49;4.60;;;4.17;;
2041;SDS011;1026;51.460;7.252;2023-06-22T05:45:18;4.43;;;4.10;;
2041;SDS011;1026;51.460;7.252;2023-06-22T05:47:43;4.70;;;4.30;;
2041;SDS011;1026;51.460;7.252;2023-06-22T05:50:09;4.13;;;3.83;;
2041;SDS011;1026;51.460;7.252;2023-06-22T05:52:34;5.27;;;4.20;;
2041;SDS011;1026;51.460;7.252;2023-06-22T05:55:01;4.27;;;3.97;;
2041;SDS011;1026;51.460;7.252;2023-06-22T05:57:27;4.17;;;3.80;;
2041;SDS011;1026;51.460;7.252;2023-06-22T05:59:53;4.90;;;4.40;;
2041;SDS011;1026;51.460;7.252;2023-06-22T06:02:19;4.10;;;3.80;;
2041;SDS011;1026;51.460;7.252;2023-06-22T06:04:45;3.60;;;3.30;;
2041;SDS011;1026;51.460;7.252;2023-06-22T06:07:10;4.80;;;4.40;;
2041;SDS011;1026;51.460;7.252;2023-06-22T06:09:36;4.90;;;4.50;;
2041;SDS011;1026;51.460;7.252;2023-06-22T06:12:02;5.13;;;4.73;;
2041;SDS011;1026;51.460;7.252;2023-06-22T06:14:47;4.77;;;4.47;;
2041;SDS011;1026;51.460;7.252;2023-06-22T06:17:13;4.73;;;4.33;;
2041;SDS011;1026;51.460;7.252;2023-06-22T06:19:59;4.43;;;4.13;;
2041;SDS011;1026;51.460;7.252;2023-06-22T06:22:24;4.83;;;4.43;;
2041;SDS011;1026;51.460;7.252;2023-06-22T06:24:50;4.13;;;3.77;;
2041;SDS011;1026;51.460;7.252;2023-06-22T06:27:16;9.30;;;8.50;;
2041;SDS011;1026;51.460;7.252;2023-06-22T06:29:44;4.00;;;3.80;;
2041;SDS011;1026;51.460;7.252;2023-06-22T06:32:13;4.83;;;4.43;;
2041;SDS011;1026;51.460;7.252;2023-06-22T06:34:38;4.73;;;4.33;;
2041;SDS011;1026;51.460;7.252;2023-06-22T06:37:05;3.33;;;3.10;;
2041;SDS011;1026;51.460;7.252;2023-06-22T06:39:31;4.50;;;4.20;;
2041;SDS011;1026;51.460;7.252;2023-06-22T06:41:56;5.20;;;4.40;;
2041;SDS011;1026;51.460;7.252;2023-06-22T06:44:22;4.80;;;4.40;;
2041;SDS011;1026;51.460;7.252;2023-06-22T06:46:48;4.90;;;4.50;;
2041;SDS011;1026;51.460;7.252;2023-06-22T06:49:13;4.90;;;4.50;;
2041;SDS011;1026;51.460;7.252;2023-06-22T06:51:39;5.07;;;4.57;;
2041;SDS011;1026;51.460;7.252;2023-06-22T06:54:05;4.40;;;4.10;;
2041;SDS011;1026;51.460;7.252;2023-06-22T06:56:37;4.27;;;3.83;;
2041;SDS011;1026;51.460;7.252;2023-06-22T06:59:03;4.33;;;3.93;;
2041;SDS011;1026;51.460;7.252;2023-06-22T07:01:28;6.07;;;5.57;;
2041;SDS011;1026;51.460;7.252;2023-06-22T07:03:58;4.37;;;4.07;;
2041;SDS011;1026;51.460;7.252;2023-06-22T07:06:30;4.10;;;3.80;;
2041;SDS011;1026;51.460;7.252;2023-06-22T07:08:57;4.50;;;4.17;;
2041;SDS011;1026;51.460;7.252;2023-06-22T07:11:22;4.53;;;4.23;;
2041;SDS011;1026;51.460;7.252;2023-06-22T07:13:48;4.10;;;3.80;;
2041;SDS011;1026;51.460;7.252;2023-06-22T07:16:14;4.50;;;4.20;;
2041;SDS011;1026;51.460;7.252;2023-06-22T07:18:39;4.37;;;4.07;;
2041;SDS011;1026;51.460;7.252;2023-06-22T07:21:05;4.27;;;3.97;;
2041;SDS011;1026;51.460;7.252;2023-06-22T07:23:32;4.90;;;4.50;;
2041;SDS011;1026;51.460;7.252;2023-06-22T07:25:58;4.73;;;4.33;;
2041;SDS011;1026;51.460;7.252;2023-06-22T07:28:27;4.60;;;4.20;;
2041;SDS011;1026;51.460;7.252;2023-06-22T07:30:53;5.60;;;5.10;;
2041;SDS011;1026;51.460;7.252;2023-06-22T07:33:19;5.17;;;4.77;;
2041;SDS011;1026;51.460;7.252;2023-06-22T07:35:45;6.00;;;4.80;;
2041;SDS011;1026;51.460;7.252;2023-06-22T07:38:12;5.03;;;4.63;;
2041;SDS011;1026;51.460;7.252;2023-06-22T07:40:39;4.27;;;3.97;;
2041;SDS011;1026;51.460;7.252;2023-06-22T07:43:06;5.00;;;4.60;;
2041;SDS011;1026;51.460;7.252;2023-06-22T07:45:32;4.70;;;4.40;;
2041;SDS011;1026;51.460;7.252;2023-06-22T07:48:00;5.17;;;4.70;;
2041;SDS011;1026;51.460;7.252;2023-06-22T07:50:26;4.60;;;4.20;;
2041;SDS011;1026;51.460;7.252;2023-06-22T07:52:51;5.47;;;4.97;;
2041;SDS011;1026;51.460;7.252;2023-06-22T07:55:18;15.40;;;13.60;;
2041;SDS011;1026;51.460;7.252;2023-06-22T07:57:43;4.50;;;4.10;;
2041;SDS011;1026;51.460;7.252;2023-06-22T08:00:17;5.07;;;4.67;;
2041;SDS011;1026;51.460;7.252;2023-06-22T08:02:44;5.10;;;4.70;;
2041;SDS011;1026;51.460;7.252;2023-06-22T08:05:11;4.63;;;4.23;;
2041;SDS011;1026;51.460;7.252;2023-06-22T08:07:37;5.93;;;5.43;;
2041;SDS011;1026;51.460;7.252;2023-06-22T08:10:05;5.00;;;4.50;;
2041;SDS011;1026;51.460;7.252;2023-06-22T08:12:31;5.40;;;5.00;;
2041;SDS011;1026;51.460;7.252;2023-06-22T08:14:57;5.33;;;4.83;;
2041;SDS011;1026;51.460;7.252;2023-06-22T08:17:24;5.20;;;4.80;;
2041;SDS011;1026;51.460;7.252;2023-06-22T08:19:50;5.63;;;5.10;;
2041;SDS011;1026;51.460;7.252;2023-06-22T08:22:16;5.33;;;4.93;;
2041;SDS011;1026;51.460;7.252;2023-06-22T08:24:42;4.70;;;4.40;;
2041;SDS011;1026;51.460;7.252;2023-06-22T08:27:09;9.10;;;8.27;;
2041;SDS011;1026;51.460;7.252;2023-06-22T08:29:38;17.60;;;15.90;;
2041;SDS011;1026;51.460;7.252;2023-06-22T08:32:04;6.00;;;5.50;;
2041;SDS011;1026;51.460;7.252;2023-06-22T08:34:30;5.23;;;4.83;;
2041;SDS011;1026;51.460;7.252;2023-06-22T08:36:56;5.70;;;5.20;;
2041;SDS011;1026;51.460;7.252;2023-06-22T08:39:21;6.03;;;5.53;;
2041;SDS011;1026;51.460;7.252;2023-06-22T08:41:47;10.43;;;9.60;;
2041;SDS011;1026;51.460;7.252;2023-06-22T08:44:13;5.20;;;4.70;;
2041;SDS011;1026;51.460;7.252;2023-06-22T08:46:42;5.33;;;4.93;;
2041;SDS011;1026;51.460;7.252;2023-06-22T08:49:07;5.13;;;4.73;;
2041;SDS011;1026;51.460;7.252;2023-06-22T08:51:36;5.70;;;5.00;;
2041;SDS011;1026;51.460;7.252;2023-06-22T08:54:01;5.30;;;4.90;;
2041;SDS011;1026;51.460;7.252;2023-06-22T08:56:27;4.83;;;4.50;;
2041;SDS011;1026;51.460;7.252;2023-06-22T08:58:53;5.37;;;4.57;;
2041;SDS011;1026;51.460;7.252;2023-06-22T09:01:18;5.10;;;4.70;;
2041;SDS011;1026;51.460;7.252;2023-06-22T09:03:44;5.30;;;4.30;;
2041;SDS011;1026;51.460;7.252;2023-06-22T09:06:19;5.10;;;4.70;;
2041;SDS011;1026;51.460;7.252;2023-06-22T09:08:45;5.10;;;4.70;;
2041;SDS011;1026;51.460;7.252;2023-06-22T09:11:12;5.40;;;4.93;;
2041;SDS011;1026;51.460;7.252;2023-06-22T09:13:37;4.63;;;4.23;;
2041;SDS011;1026;51.460;7.252;2023-06-22T09:16:03;5.00;;;4.60;;
2041;SDS011;1026;51.460;7.252;2023-06-22T09:18:29;13.27;;;12.10;;
2041;SDS011;1026;51.460;7.252;2023-06-22T09:20:55;5.87;;;5.40;;
2041;SDS011;1026;51.460;7.252;2023-06-22T09:23:20;21.20;;;19.10;;
2041;SDS011;1026;51.460;7.252;2023-06-22T09:25:46;20.20;;;18.23;;
2041;SDS011;1026;51.460;7.252;2023-06-22T09:28:13;12.40;;;11.23;;
2041;SDS011;1026;51.460;7.252;2023-06-22T09:30:39;14.80;;;13.30;;
2041;SDS011;1026;51.460;7.252;2023-06-22T09:33:04;6.70;;;6.20;;
2041;SDS011;1026;51.460;7.252;2023-06-22T09:35:30;12.73;;;11.60;;
2041;SDS011;1026;51.460;7.252;2023-06-22T09:37:56;9.73;;;8.93;;
2041;SDS011;1026;51.460;7.252;2023-06-22T09:40:21;20.43;;;18.60;;
2041;SDS011;1026;51.460;7.252;2023-06-22T09:42:47;12.93;;;10.63;;
2041;SDS011;1026;51.460;7.252;2023-06-22T09:45:13;6.77;;;6.17;;
2041;SDS011;1026;51.460;7.252;2023-06-22T09:47:38;14.73;;;13.33;;
2041;SDS011;1026;51.460;7.252;2023-06-22T09:50:04;15.70;;;14.20;;
2041;SDS011;1026;51.460;7.252;2023-06-22T09:52:34;9.00;;;8.20;;
2041;SDS011;1026;51.460;7.252;2023-06-22T09:54:59;8.40;;;7.60;;
2041;SDS011;1026;51.460;7.252;2023-06-22T09:57:25;9.60;;;8.60;;
2041;SDS011;1026;51.460;7.252;2023-06-22T09:59:51;8.03;;;7.10;;
2041;SDS011;1026;51.460;7.252;2023-06-22T10:02:16;8.33;;;7.63;;
2041;SDS011;1026;51.460;7.252;2023-06-22T10:04:42;7.90;;;7.20;;
2041;SDS011;1026;51.460;7.252;2023-06-22T10:07:08;5.67;;;5.27;;
2041;SDS011;1026;51.460;7.252;2023-06-22T10:09:33;13.23;;;11.23;;
2041;SDS011;1026;51.460;7.252;2023-06-22T10:11:59;8.03;;;7.33;;
2041;SDS011;1026;51.460;7.252;2023-06-22T10:14:24;11.87;;;10.17;;
2041;SDS011;1026;51.460;7.252;2023-06-22T10:16:52;9.13;;;8.40;;
2041;SDS011;1026;51.460;7.252;2023-06-22T10:19:18;8.10;;;7.40;;
2041;SDS011;1026;51.460;7.252;2023-06-22T10:21:44;8.93;;;8.03;;
2041;SDS011;1026;51.460;7.252;2023-06-22T10:24:10;10.67;;;9.77;;
2041;SDS011;1026;51.460;7.252;2023-06-22T10:26:35;8.23;;;7.53;;
2041;SDS011;1026;51.460;7.252;2023-06-22T10:29:02;9.60;;;8.80;;
2041;SDS011;1026;51.460;7.252;2023-06-22T10:31:28;9.00;;;8.23;;
2041;SDS011;1026;51.460;7.252;2023-06-22T10:33:54;7.33;;;6.73;;
2041;SDS011;1026;51.460;7.252;2023-06-22T10:36:21;6.73;;;5.97;;
2041;SDS011;1026;51.460;7.252;2023-06-22T10:38:47;8.00;;;7.23;;
2041;SDS011;1026;51.460;7.252;2023-06-22T10:41:14;10.87;;;9.77;;
2041;SDS011;1026;51.460;7.252;2023-06-22T10:43:40;10.40;;;9.40;;
2041;SDS011;1026;51.460;7.252;2023-06-22T10:46:09;10.77;;;9.87;;
2041;SDS011;1026;51.460;7.252;2023-06-22T10:48:34;10.20;;;9.30;;
2041;SDS011;1026;51.460;7.252;2023-06-22T10:51:00;7.37;;;6.77;;
2041;SDS011;1026;51.460;7.252;2023-06-22T10:53:25;10.43;;;9.53;;
2041;SDS011;1026;51.460;7.252;2023-06-22T10:55:57;11.60;;;10.40;;
2041;SDS011;1026;51.460;7.252;2023-06-22T10:58:23;8.93;;;7.63;;
2041;SDS011;1026;51.460;7.252;2023-06-22T11:00:49;12.27;;;11.00;;
2041;SDS011;1026;51.460;7.252;2023-06-22T11:03:15;8.47;;;7.67;;
2041;SDS011;1026;51.460;7.252;2023-06-22T11:05:40;10.00;;;9.20;;
2041;SDS011;1026;51.460;7.252;2023-06-22T11:08:06;12.57;;;11.53;;
2041;SDS011;1026;51.460;7.252;2023-06-22T11:10:32;7.40;;;6.70;;
2041;SDS011;1026;51.460;7.252;2023-06-22T11:12:58;6.77;;;6.27;;
2041;SDS011;1026;51.460;7.252;2023-06-22T11:15:24;6.80;;;6.20;;
2041;SDS011;1026;51.460;7.252;2023-06-22T11:17:50;6.73;;;6.13;;
2041;SDS011;1026;51.460;7.252;2023-06-22T11:20:16;11.77;;;10.67;;
2041;SDS011;1026;51.460;7.252;2023-06-22T11:22:41;6.70;;;6.20;;
2041;SDS011;1026;51.460;7.252;2023-06-22T11:25:07;8.40;;;7.80;;
2041;SDS011;1026;51.460;7.252;2023-06-22T11:27:34;6.13;;;5.50;;
2041;SDS011;1026;51.460;7.252;2023-06-22T11:30:00;6.07;;;5.67;;
2041;SDS011;1026;51.460;7.252;2023-06-22T11:32:34;6.10;;;5.60;;
2041;SDS011;1026;51.460;7.252;2023-06-22T11:35:00;5.90;;;5.50;;
2041;SDS011;1026;51.460;7.252;2023-06-22T11:37:32;5.67;;;5.27;;
2041;SDS011;1026;51.460;7.252;2023-06-22T11:39:58;5.70;;;5.30;;
2041;SDS011;1026;51.460;7.252;2023-06-22T11:42:24;6.10;;;5.60;;
2041;SDS011;1026;51.460;7.252;2023-06-22T11:44:50;13.87;;;12.57;;
2041;SDS011;1026;51.460;7.252;2023-06-22T11:47:17;18.47;;;14.80;;
2041;SDS011;1026;51.460;7.252;2023-06-22T11:49:45;8.47;;;7.67;;
2041;SDS011;1026;51.460;7.252;2023-06-22T11:52:11;16.67;;;12.80;;
2041;SDS011;1026;51.460;7.252;2023-06-22T11:54:37;11.83;;;10.67;;
2041;SDS011;1026;51.460;7.252;2023-06-22T11:57:04;6.87;;;6.30;;
2041;SDS011;1026;51.460;7.252;2023-06-22T11:59:29;6.30;;;5.77;;
2041;SDS011;1026;51.460;7.252;2023-06-22T12:01:55;11.30;;;10.40;;
2041;SDS011;1026;51.460;7.252;2023-06-22T12:04:23;6.07;;;5.57;;
2041;SDS011;1026;51.460;7.252;2023-06-22T12:06:48;6.40;;;5.90;;
2041;SDS011;1026;51.460;7.252;2023-06-22T12:09:14;15.27;;;13.73;;
2041;SDS011;1026;51.460;7.252;2023-06-22T12:11:40;17.47;;;15.40;;
2041;SDS011;1026;51.460;7.252;2023-06-22T12:14:05;15.10;;;13.73;;
2041;SDS011;1026;51.460;7.252;2023-06-22T12:16:31;10.63;;;9.70;;
2041;SDS011;1026;51.460;7.252;2023-06-22T12:18:57;6.87;;;6.30;;
2041;SDS011;1026;51.460;7.252;2023-06-22T12:21:22;7.77;;;7.17;;
2041;SDS011;1026;51.460;7.252;2023-06-22T12:23:48;18.87;;;17.17;;
2041;SDS011;1026;51.460;7.252;2023-06-22T12:26:14;31.63;;;24.90;;
2041;SDS011;1026;51.460;7.252;2023-06-22T12:28:40;20.13;;;18.30;;
2041;SDS011;1026;51.460;7.252;2023-06-22T12:31:05;8.10;;;7.50;;
2041;SDS011;1026;51.460;7.252;2023-06-22T12:33:31;17.97;;;16.33;;
2041;SDS011;1026;51.460;7.252;2023-06-22T12:35:57;6.80;;;6.20;;
2041;SDS011;1026;51.460;7.252;2023-06-22T12:38:22;13.33;;;12.13;;
2041;SDS011;1026;51.460;7.252;2023-06-22T12:40:50;16.53;;;13.60;;
2041;SDS011;1026;51.460;7.252;2023-06-22T12:43:16;17.47;;;15.20;;
2041;SDS011;1026;51.460;7.252;2023-06-22T12:45:42;7.50;;;6.77;;
2041;SDS011;1026;51.460;7.252;2023-06-22T12:48:07;7.37;;;6.77;;
2041;SDS011;1026;51.460;7.252;2023-06-22T12:50:33;12.03;;;10.93;;
2041;SDS011;1026;51.460;7.252;2023-06-22T12:52:59;16.53;;;15.07;;
2041;SDS011;1026;51.460;7.252;2023-06-22T12:55:30;14.30;;;12.97;;
2041;SDS011;1026;51.460;7.252;2023-06-22T12:57:55;14.83;;;13.37;;
2041;SDS011;1026;51.460;7.252;2023-06-22T13:00:21;16.07;;;14.53;;
2041;SDS011;1026;51.460;7.252;2023-06-22T13:02:47;10.93;;;9.90;;
2041;SDS011;1026;51.460;7.252;2023-06-22T13:05:12;13.77;;;12.47;;
2041;SDS011;1026;51.460;7.252;2023-06-22T13:07:38;9.63;;;8.83;;
2041;SDS011;1026;51.460;7.252;2023-06-22T13:10:04;7.33;;;6.73;;
2041;SDS011;1026;51.460;7.252;2023-06-22T13:12:30;9.97;;;9.13;;
2041;SDS011;1026;51.460;7.252;2023-06-22T13:14:59;8.10;;;7.50;;
2041;SDS011;1026;51.460;7.252;2023-06-22T13:17:24;12.37;;;11.20;;
2041;SDS011;1026;51.460;7.252;2023-06-22T13:19:50;7.90;;;7.30;;
2041;SDS011;1026;51.460;7.252;2023-06-22T13:25:09;12.30;;;11.10;;
2041;SDS011;1026;51.460;7.252;2023-06-22T13:27:38;10.93;;;9.90;;
2041;SDS011;1026;51.460;7.252;2023-06-22T13:30:06;11.93;;;10.80;;
2041;SDS011;1026;51.460;7.252;2023-06-22T13:32:32;11.43;;;10.33;;
2041;SDS011;1026;51.460;7.252;2023-06-22T13:34:58;9.47;;;8.57;;
2041;SDS011;1026;51.460;7.252;2023-06-22T13:37:25;7.60;;;7.00;;
2041;SDS011;1026;51.460;7.252;2023-06-22T13:39:51;12.97;;;11.60;;
2041;SDS011;1026;51.460;7.252;2023-06-22T13:42:17;7.20;;;6.60;;
2041;SDS011;1026;51.460;7.252;2023-06-22T13:44:42;14.50;;;13.10;;
2041;SDS011;1026;51.460;7.252;2023-06-22T13:47:08;8.00;;;7.30;;
2041;SDS011;1026;51.460;7.252;2023-06-22T13:49:34;10.33;;;9.43;;
2041;SDS011;1026;51.460;7.252;2023-06-22T13:52:00;7.90;;;7.10;;
2041;SDS011;1026;51.460;7.252;2023-06-22T13:54:25;7.77;;;7.07;;
2041;SDS011;1026;51.460;7.252;2023-06-22T13:56:51;9.90;;;9.10;;
2041;SDS011;1026;51.460;7.252;2023-06-22T13:59:17;6.87;;;6.30;;
2041;SDS011;1026;51.460;7.252;2023-06-22T14:01:44;7.73;;;7.10;;
2041;SDS011;1026;51.460;7.252;2023-06-22T14:04:10;10.83;;;9.93;;
2041;SDS011;1026;51.460;7.252;2023-06-22T14:06:36;11.57;;;10.50;;
2041;SDS011;1026;51.460;7.252;2023-06-22T14:09:02;8.53;;;7.83;;
2041;SDS011;1026;51.460;7.252;2023-06-22T14:11:40;7.97;;;7.37;;
2041;SDS011;1026;51.460;7.252;2023-06-22T14:14:06;8.93;;;8.10;;
2041;SDS011;1026;51.460;7.252;2023-06-22T14:16:31;8.47;;;7.77;;
2041;SDS011;1026;51.460;7.252;2023-06-22T14:18:57;12.60;;;11.50;;
2041;SDS011;1026;51.460;7.252;2023-06-22T14:21:29;8.67;;;8.03;;
2041;SDS011;1026;51.460;7.252;2023-06-22T14:23:54;17.37;;;15.80;;
2041;SDS011;1026;51.460;7.252;2023-06-22T14:26:20;9.30;;;8.40;;
2041;SDS011;1026;51.460;7.252;2023-06-22T14:28:47;9.60;;;8.80;;
2041;SDS011;1026;51.460;7.252;2023-06-22T14:31:15;9.43;;;8.60;;
2041;SDS011;1026;51.460;7.252;2023-06-22T14:33:44;15.00;;;13.50;;
2041;SDS011;1026;51.460;7.252;2023-06-22T14:36:11;13.80;;;10.97;;
2041;SDS011;1026;51.460;7.252;2023-06-22T14:38:43;9.10;;;8.30;;
2041;SDS011;1026;51.460;7.252;2023-06-22T14:41:09;8.37;;;7.67;;
2041;SDS011;1026;51.460;7.252;2023-06-22T14:43:34;7.90;;;7.20;;
2041;SDS011;1026;51.460;7.252;2023-06-22T14:46:00;10.73;;;9.80;;
2041;SDS011;1026;51.460;7.252;2023-06-22T14:48:26;14.23;;;12.87;;
2041;SDS011;1026;51.460;7.252;2023-06-22T14:50:52;12.07;;;11.00;;
2041;SDS011;1026;51.460;7.252;2023-06-22T14:53:19;10.33;;;9.37;;
2041;SDS011;1026;51.460;7.252;2023-06-22T14:55:45;6.43;;;5.93;;
2041;SDS011;1026;51.460;7.252;2023-06-22T14:58:10;8.30;;;7.60;;
2041;SDS011;1026;51.460;7.252;2023-06-22T15:00:37;11.10;;;9.97;;
2041;SDS011;1026;51.460;7.252;2023-06-22T15:03:03;11.93;;;10.93;;
2041;SDS011;1026;51.460;7.252;2023-06-22T15:05:45;9.70;;;8.87;;
2041;SDS011;1026;51.460;7.252;2023-06-22T15:08:11;8.73;;;8.03;;
2041;SDS011;1026;51.460;7.252;2023-06-22T15:10:37;11.67;;;10.67;;
2041;SDS011;1026;51.460;7.252;2023-06-22T15:13:02;11.90;;;10.80;;
2041;SDS011;1026;51.460;7.252;2023-06-22T15:15:28;12.17;;;11.17;;